Time;durP1;ratioP1;P1;durP2;ratioP2;P2;SDS_P1;SDS_P2;PMS_P1;PMS_P2;Temp;Humidity;BMP_temperature;BMP_pressure;BME280_temperature;BME280_humidity;BME280_pressure;Samples;Min_cycle;Max_cycle;Signal;HPM_P1;HPM_P2
2022/09/19 00:00:41;;;;;;;3.80;1.20;;;11.90;33.40;;;;;;5021056;28;20834;-72
2022/09/19 00:03:09;;;;;;;5.27;1.63;;;11.90;33.40;;;;;;5023220;28;20467;-70
2022/09/19 00:05:39;;;;;;;5.20;1.13;;;11.90;33.50;;;;;;5020472;28;20458;-71
2022/09/19 00:08:06;;;;;;;5.60;1.27;;;11.90;33.20;;;;;;5017068;28;20478;-70
2022/09/19 00:10:38;;;;;;;4.37;1.20;;;11.90;33.20;;;;;;5020521;28;20820;-71
2022/09/19 00:13:06;;;;;;;5.43;1.20;;;11.90;32.90;;;;;;5020213;28;20459;-70
2022/09/19 00:15:34;;;;;;;5.23;1.20;;;11.80;32.70;;;;;;5016968;28;20459;-71
2022/09/19 00:18:01;;;;;;;4.80;1.00;;;11.80;32.90;;;;;;5020511;28;20962;-71
2022/09/19 00:20:29;;;;;;;3.87;1.10;;;11.80;33.00;;;;;;5024719;28;20470;-71
2022/09/19 00:25:40;;;;;;;4.30;1.10;;;11.70;33.10;;;;;;5021945;28;20493;-71
2022/09/19 00:28:08;;;;;;;3.70;0.90;;;11.70;33.20;;;;;;5022444;28;21276;-71
2022/09/19 00:30:38;;;;;;;4.70;1.43;;;11.70;33.30;;;;;;5022644;28;21227;-72
2022/09/19 00:33:05;;;;;;;4.00;1.10;;;11.60;33.50;;;;;;5020341;28;20467;-71
2022/09/19 00:35:33;;;;;;;4.17;0.90;;;11.60;33.90;;;;;;5020357;28;20458;-71
2022/09/19 00:38:00;;;;;;;3.77;0.97;;;11.60;34.10;;;;;;5018881;28;20482;-72
2022/09/19 00:40:27;;;;;;;4.83;1.30;;;11.60;34.20;;;;;;5022535;28;20489;-70
2022/09/19 00:42:54;;;;;;;3.80;1.20;;;11.60;34.40;;;;;;5020273;28;20464;-70
2022/09/19 00:45:20;;;;;;;4.30;1.40;;;11.60;35.00;;;;;;5022818;28;20466;-71
2022/09/19 00:47:50;;;;;;;5.40;1.60;;;11.60;35.60;;;;;;5023440;28;20510;-70
2022/09/19 00:50:22;;;;;;;5.07;1.70;;;11.50;36.40;;;;;;5012457;28;20460;-71
2022/09/19 00:52:54;;;;;;;4.67;1.50;;;11.50;36.80;;;;;;5016543;28;20463;-71
2022/09/19 00:55:21;;;;;;;3.70;1.10;;;11.50;37.40;;;;;;5021065;28;20455;-70
2022/09/19 00:57:59;;;;;;;3.73;1.07;;;11.40;37.20;;;;;;5012523;28;20483;-71
2022/09/19 01:00:27;;;;;;;3.60;1.00;;;11.40;37.20;;;;;;5017427;28;20493;-71
2022/09/19 01:02:54;;;;;;;3.60;1.03;;;11.30;37.20;;;;;;5021141;28;20526;-70
2022/09/19 01:05:28;;;;;;;3.90;1.07;;;11.30;37.60;;;;;;5021689;28;20462;-71
2022/09/19 01:08:15;;;;;;;4.23;0.80;;;11.30;36.80;;;;;;5018458;28;20474;-71
2022/09/19 01:11:03;;;;;;;3.90;0.80;;;11.20;37.00;;;;;;5023978;28;20537;-72
2022/09/19 01:13:38;;;;;;;3.20;0.70;;;11.20;36.90;;;;;;5015530;28;21024;-70
2022/09/19 01:16:07;;;;;;;3.97;0.57;;;11.20;37.00;;;;;;5023628;28;20462;-72
2022/09/19 01:18:45;;;;;;;3.20;0.60;;;11.20;37.10;;;;;;5021337;28;20550;-71
2022/09/19 01:21:39;;;;;;;3.50;0.80;;;11.20;37.40;;;;;;5019033;28;20569;-71
2022/09/19 01:24:37;;;;;;;3.80;0.50;;;11.10;37.10;;;;;;5019504;28;20458;-69
2022/09/19 01:27:31;;;;;;;3.40;0.60;;;11.10;36.90;;;;;;5026068;28;20528;-71
2022/09/19 01:30:03;;;;;;;3.60;0.60;;;11.10;36.90;;;;;;5018195;28;20458;-72
2022/09/19 01:32:35;;;;;;;3.07;0.40;;;11.10;36.80;;;;;;5014302;28;21216;-73
2022/09/19 01:35:05;;;;;;;4.03;0.40;;;11.00;36.50;;;;;;5023338;28;20461;-72
2022/09/19 01:37:36;;;;;;;3.00;0.40;;;11.00;36.00;;;;;;5024810;28;20513;-72
2022/09/19 01:40:06;;;;;;;3.30;0.60;;;10.90;35.50;;;;;;5019203;28;20475;-70
2022/09/19 01:42:33;;;;;;;3.00;0.40;;;10.90;35.00;;;;;;5026714;28;20463;-71
2022/09/19 01:45:01;;;;;;;3.30;0.50;;;10.70;34.80;;;;;;5027776;28;20459;-71
2022/09/19 01:47:36;;;;;;;3.30;0.47;;;10.70;34.90;;;;;;5027303;28;20484;-70
2022/09/19 01:50:08;;;;;;;3.97;0.50;;;10.60;35.00;;;;;;5022440;28;20463;-71
2022/09/19 01:52:51;;;;;;;3.30;0.60;;;10.50;34.80;;;;;;5023847;28;20463;-70
2022/09/19 01:55:25;;;;;;;3.20;0.47;;;10.40;34.90;;;;;;5028808;28;20489;-71
2022/09/19 01:58:04;;;;;;;3.87;0.40;;;10.30;34.90;;;;;;5021409;28;20535;-70
2022/09/19 02:00:33;;;;;;;3.10;0.43;;;10.20;34.90;;;;;;5021550;28;20475;-71
2022/09/19 02:03:11;;;;;;;3.40;0.40;;;10.20;34.80;;;;;;5020974;28;20470;-70
2022/09/19 02:05:49;;;;;;;4.57;0.50;;;10.10;35.00;;;;;;5025162;28;20463;-70
2022/09/19 02:08:21;;;;;;;4.20;0.80;;;10.00;35.30;;;;;;5023011;28;20478;-71
2022/09/19 02:10:54;;;;;;;3.00;0.40;;;9.90;36.00;;;;;;5023002;28;20478;-70
2022/09/19 02:13:24;;;;;;;3.10;0.50;;;9.90;35.20;;;;;;5024390;28;20479;-71
2022/09/19 02:15:58;;;;;;;3.17;0.50;;;9.80;35.20;;;;;;5025391;28;20495;-71
2022/09/19 02:18:30;;;;;;;3.20;0.40;;;9.70;35.60;;;;;;5022802;28;20488;-71
2022/09/19 02:21:05;;;;;;;3.10;0.40;;;9.60;35.80;;;;;;5023709;28;20472;-71
2022/09/19 02:23:37;;;;;;;3.13;0.47;;;9.60;35.60;;;;;;5016988;28;20498;-71
2022/09/19 02:26:09;;;;;;;3.60;0.50;;;9.50;36.20;;;;;;5026527;28;20835;-71
2022/09/19 02:28:41;;;;;;;3.33;0.50;;;9.40;36.00;;;;;;5023040;28;20462;-71
2022/09/19 02:31:12;;;;;;;3.50;0.50;;;9.40;35.80;;;;;;5024337;28;20483;-71
2022/09/19 02:33:46;;;;;;;3.47;0.40;;;9.30;35.90;;;;;;5026536;28;20462;-71
2022/09/19 02:36:17;;;;;;;3.03;0.40;;;9.30;36.20;;;;;;5021390;28;20461;-71
2022/09/19 02:38:54;;;;;;;3.80;0.50;;;9.20;36.30;;;;;;5023798;28;20466;-71
2022/09/19 02:41:24;;;;;;;3.20;0.50;;;9.10;36.70;;;;;;5018750;28;20855;-71
2022/09/19 02:44:00;;;;;;;3.20;0.60;;;9.10;36.40;;;;;;5027283;28;20470;-71
2022/09/19 02:46:36;;;;;;;4.13;0.60;;;9.10;36.30;;;;;;5018080;28;20853;-72
2022/09/19 02:49:09;;;;;;;3.60;0.70;;;9.10;36.00;;;;;;5021549;28;20971;-71
2022/09/19 02:51:39;;;;;;;3.30;0.60;;;9.00;35.70;;;;;;5021383;28;20456;-72
2022/09/19 02:54:11;;;;;;;5.87;0.90;;;9.00;35.80;;;;;;5022128;28;20463;-71
2022/09/19 02:56:41;;;;;;;4.07;0.90;;;9.00;35.80;;;;;;5024917;28;20850;-72
2022/09/19 02:59:12;;;;;;;3.90;0.80;;;9.00;35.90;;;;;;5016572;28;20523;-71
2022/09/19 03:01:45;;;;;;;3.70;0.70;;;8.90;36.00;;;;;;5024096;28;20480;-71
2022/09/19 03:04:16;;;;;;;3.60;0.80;;;8.90;36.20;;;;;;5023955;28;20959;-71
2022/09/19 03:06:51;;;;;;;3.27;0.70;;;8.90;36.30;;;;;;5022225;28;20485;-71
2022/09/19 03:09:23;;;;;;;3.30;0.60;;;8.80;36.40;;;;;;5026430;28;20457;-71
2022/09/19 03:11:55;;;;;;;5.07;0.70;;;8.80;36.30;;;;;;5019804;28;20467;-71
2022/09/19 03:14:23;;;;;;;3.40;0.60;;;8.70;36.70;;;;;;5021613;28;20455;-72
2022/09/19 03:16:56;;;;;;;4.63;0.53;;;8.70;36.10;;;;;;5020477;28;20568;-71
2022/09/19 03:19:24;;;;;;;3.80;0.70;;;8.70;36.10;;;;;;5016499;28;20886;-70
2022/09/19 03:21:53;;;;;;;3.40;0.60;;;8.60;36.00;;;;;;5022308;28;20551;-72
2022/09/19 03:24:20;;;;;;;3.40;0.60;;;8.50;36.10;;;;;;5018952;28;20455;-72
2022/09/19 03:26:47;;;;;;;5.50;0.80;;;8.50;36.10;;;;;;5022783;28;20483;-72
2022/09/19 03:29:15;;;;;;;4.13;0.60;;;8.50;36.20;;;;;;5023627;28;20954;-72
2022/09/19 03:31:42;;;;;;;3.87;0.70;;;8.40;36.30;;;;;;5023164;28;20478;-72
2022/09/19 03:34:10;;;;;;;3.80;0.60;;;8.40;36.30;;;;;;5018674;28;20551;-72
2022/09/19 03:36:37;;;;;;;4.73;0.67;;;8.40;36.40;;;;;;5013300;28;20991;-73
2022/09/19 03:39:04;;;;;;;3.50;0.80;;;8.40;36.50;;;;;;5020018;28;20466;-73
2022/09/19 03:41:32;;;;;;;4.87;0.80;;;8.30;36.60;;;;;;5018227;28;20587;-72
2022/09/19 03:44:01;;;;;;;6.67;0.70;;;8.30;36.70;;;;;;5019132;28;20970;-74
2022/09/19 03:46:30;;;;;;;6.10;0.90;;;8.30;36.70;;;;;;5020538;28;20514;-73
2022/09/19 03:48:58;;;;;;;4.93;1.10;;;8.30;36.80;;;;;;5018414;28;20471;-72
2022/09/19 03:51:26;;;;;;;9.70;1.03;;;8.20;36.80;;;;;;5016105;28;20459;-72
2022/09/19 03:53:53;;;;;;;4.10;1.00;;;8.20;36.80;;;;;;5023629;28;20470;-73
2022/09/19 03:56:20;;;;;;;7.87;1.20;;;8.20;37.00;;;;;;5020660;28;20483;-75
2022/09/19 03:58:46;;;;;;;4.37;1.13;;;8.20;37.10;;;;;;5018101;28;20620;-74
2022/09/19 04:01:14;;;;;;;8.13;1.30;;;8.10;37.30;;;;;;5015361;28;20493;-74
2022/09/19 04:03:42;;;;;;;5.20;1.10;;;8.10;37.30;;;;;;5018232;28;21059;-74
2022/09/19 04:06:10;;;;;;;6.10;1.00;;;8.10;37.40;;;;;;5014208;28;20459;-74
2022/09/19 04:08:38;;;;;;;5.53;1.70;;;8.10;37.50;;;;;;5019272;28;20827;-73
2022/09/19 04:11:05;;;;;;;4.67;1.10;;;8.10;37.80;;;;;;5021222;28;20550;-73
2022/09/19 04:13:33;;;;;;;4.67;1.00;;;8.20;37.90;;;;;;5022250;28;20463;-73
2022/09/19 04:16:01;;;;;;;6.07;1.57;;;8.20;38.10;;;;;;5021391;28;20556;-73
2022/09/19 04:18:28;;;;;;;4.53;1.67;;;8.30;38.10;;;;;;5018751;28;20463;-73
2022/09/19 04:20:56;;;;;;;3.97;1.00;;;8.30;37.90;;;;;;5015347;28;20999;-74
2022/09/19 04:23:23;;;;;;;6.90;1.20;;;8.30;37.80;;;;;;5015311;28;20463;-76
2022/09/19 04:25:51;;;;;;;5.67;1.03;;;8.30;37.80;;;;;;5021148;28;20473;-68
2022/09/19 04:28:18;;;;;;;7.90;1.10;;;8.40;37.60;;;;;;5019134;28;20482;-69
2022/09/19 04:30:45;;;;;;;6.13;1.83;;;8.40;37.70;;;;;;5020366;28;20550;-70
2022/09/19 04:33:13;;;;;;;4.73;1.10;;;8.50;37.70;;;;;;5019781;28;20459;-70
2022/09/19 04:35:41;;;;;;;4.73;0.80;;;8.40;37.50;;;;;;5019957;28;20487;-71
2022/09/19 04:38:11;;;;;;;4.73;1.33;;;8.40;37.50;;;;;;5020757;28;20510;-70
2022/09/19 04:40:39;;;;;;;5.97;0.97;;;8.50;37.40;;;;;;5019848;28;20486;-72
2022/09/19 04:43:09;;;;;;;5.40;0.87;;;8.50;37.40;;;;;;5020913;28;20536;-70
2022/09/19 04:45:36;;;;;;;5.20;1.50;;;8.50;37.40;;;;;;5018826;28;20464;-70
2022/09/19 04:48:04;;;;;;;4.37;0.83;;;8.50;37.60;;;;;;5014899;28;20505;-70
2022/09/19 04:50:31;;;;;;;5.23;0.80;;;8.50;37.40;;;;;;5013531;28;20459;-70
2022/09/19 04:52:58;;;;;;;4.10;1.13;;;8.50;37.40;;;;;;5015093;28;20464;-70
2022/09/19 04:55:25;;;;;;;5.30;1.03;;;8.50;37.40;;;;;;5021125;28;20470;-70
2022/09/19 04:57:52;;;;;;;6.80;1.30;;;8.50;37.30;;;;;;5022771;28;20479;-70
2022/09/19 05:00:37;;;;;;;5.77;1.33;;;8.50;37.30;;;;;;5018980;28;20517;-71
2022/09/19 05:03:06;;;;;;;5.47;1.37;;;8.50;37.30;;;;;;5018572;28;20465;-70
2022/09/19 05:05:33;;;;;;;5.63;1.50;;;8.50;37.30;;;;;;5015795;28;20463;-69
2022/09/19 05:08:00;;;;;;;6.37;2.93;;;8.60;37.40;;;;;;5011802;28;20861;-69
2022/09/19 05:10:27;;;;;;;6.53;1.50;;;8.70;37.40;;;;;;5021169;28;20471;-70
2022/09/19 05:12:54;;;;;;;6.43;1.90;;;8.80;37.30;;;;;;5019331;28;20466;-69
2022/09/19 05:15:24;;;;;;;6.00;1.70;;;8.80;37.30;;;;;;5023501;28;20470;-69
2022/09/19 05:17:52;;;;;;;6.10;1.40;;;8.80;37.30;;;;;;5021063;28;20917;-70
2022/09/19 05:20:19;;;;;;;7.43;1.40;;;8.90;37.40;;;;;;5026491;28;20998;-71
2022/09/19 05:22:46;;;;;;;8.20;3.37;;;8.90;37.30;;;;;;5014199;28;20464;-71
2022/09/19 05:25:15;;;;;;;5.73;1.33;;;9.00;37.20;;;;;;5024214;28;20466;-70
2022/09/19 05:27:42;;;;;;;8.90;1.83;;;9.00;37.10;;;;;;5012971;28;20515;-70
2022/09/19 05:30:11;;;;;;;7.60;1.37;;;9.10;37.10;;;;;;5019364;28;21017;-70
2022/09/19 05:32:44;;;;;;;5.00;0.93;;;9.10;36.80;;;;;;5017717;28;20458;-69
2022/09/19 05:35:11;;;;;;;5.47;1.10;;;9.20;36.60;;;;;;5022460;28;20864;-70
2022/09/19 05:37:40;;;;;;;4.70;1.40;;;9.20;36.40;;;;;;5015274;28;21022;-71
2022/09/19 05:40:10;;;;;;;5.90;1.40;;;9.30;36.50;;;;;;5019189;28;20460;-70
2022/09/19 05:42:40;;;;;;;7.63;1.60;;;9.30;36.30;;;;;;5014385;28;20482;-69
2022/09/19 05:45:08;;;;;;;5.53;1.20;;;9.40;35.90;;;;;;5020722;28;20463;-71
2022/09/19 05:47:35;;;;;;;4.03;1.03;;;9.50;35.80;;;;;;5016434;28;20845;-70
2022/09/19 05:50:04;;;;;;;7.10;1.30;;;9.50;35.70;;;;;;5012838;28;20514;-71
2022/09/19 05:55:15;;;;;;;7.53;1.63;;;9.60;35.60;;;;;;5024522;28;20512;-71
2022/09/19 05:57:44;;;;;;;8.33;1.63;;;9.60;35.40;;;;;;5025338;28;20490;-69
2022/09/19 06:00:12;;;;;;;6.33;1.30;;;9.70;35.30;;;;;;5013388;28;20468;-70
2022/09/19 06:02:39;;;;;;;6.07;2.00;;;9.70;35.10;;;;;;5016356;28;20475;-70
2022/09/19 06:05:07;;;;;;;6.60;1.30;;;9.80;34.90;;;;;;5012732;28;20471;-71
2022/09/19 06:07:34;;;;;;;5.00;1.20;;;9.80;34.80;;;;;;5016330;28;22366;-70
2022/09/19 06:10:01;;;;;;;9.17;1.60;;;9.80;34.80;;;;;;5020586;28;20470;-69
2022/09/19 06:12:28;;;;;;;5.43;1.50;;;9.80;34.90;;;;;;5021357;28;20977;-70
2022/09/19 06:14:54;;;;;;;5.77;1.10;;;9.90;34.70;;;;;;5016743;28;20467;-70
2022/09/19 06:17:21;;;;;;;5.20;1.00;;;9.90;34.30;;;;;;5022749;28;20861;-71
2022/09/19 06:19:48;;;;;;;6.03;1.57;;;9.90;34.40;;;;;;5022652;28;20462;-70
2022/09/19 06:22:16;;;;;;;7.37;1.47;;;10.00;34.00;;;;;;5017503;28;20853;-70
2022/09/19 06:24:43;;;;;;;4.27;1.30;;;10.00;34.10;;;;;;5015010;28;20459;-71
2022/09/19 06:27:09;;;;;;;4.17;0.97;;;10.10;34.10;;;;;;5024828;28;20475;-71
2022/09/19 06:29:36;;;;;;;7.30;1.53;;;10.20;34.10;;;;;;5022699;28;20509;-71
2022/09/19 06:32:03;;;;;;;7.80;1.40;;;10.30;33.80;;;;;;5025526;28;20534;-71
2022/09/19 06:34:30;;;;;;;4.80;1.10;;;10.30;33.80;;;;;;5024743;28;20466;-70
2022/09/19 06:36:57;;;;;;;5.97;1.10;;;10.30;34.00;;;;;;5028680;28;21012;-71
2022/09/19 06:39:25;;;;;;;6.63;1.40;;;10.40;34.00;;;;;;5025975;28;20822;-70
2022/09/19 06:41:52;;;;;;;5.30;1.50;;;10.40;33.70;;;;;;5026128;28;20873;-70
2022/09/19 06:44:19;;;;;;;6.80;1.37;;;10.50;33.60;;;;;;5022736;28;20474;-70
2022/09/19 06:46:46;;;;;;;7.10;1.13;;;10.50;33.90;;;;;;5025421;28;20533;-70
2022/09/19 06:49:12;;;;;;;3.90;1.00;;;10.50;33.90;;;;;;5024727;28;20471;-70
2022/09/19 06:51:39;;;;;;;10.10;1.23;;;10.50;34.60;;;;;;5025526;28;20467;-71
2022/09/19 06:54:06;;;;;;;7.53;1.27;;;10.50;34.10;;;;;;5022005;28;20459;-70
2022/09/19 06:56:34;;;;;;;5.30;1.20;;;10.50;34.30;;;;;;5023141;28;20480;-70
2022/09/19 06:59:02;;;;;;;9.10;1.20;;;10.50;34.00;;;;;;5019856;28;20458;-70
2022/09/19 07:01:28;;;;;;;4.03;1.00;;;10.50;33.80;;;;;;5020446;28;20539;-71
2022/09/19 07:03:55;;;;;;;11.70;2.20;;;10.50;33.70;;;;;;5025296;28;20459;-70
2022/09/19 07:06:22;;;;;;;7.27;1.67;;;10.60;33.60;;;;;;5024095;28;20489;-70
2022/09/19 07:08:48;;;;;;;5.47;2.33;;;10.60;33.50;;;;;;5018125;28;20477;-70
2022/09/19 07:11:15;;;;;;;6.23;1.50;;;10.60;33.30;;;;;;5020574;28;20725;-71
2022/09/19 07:13:44;;;;;;;4.70;1.13;;;10.60;33.40;;;;;;5023255;28;20546;-70
2022/09/19 07:16:10;;;;;;;4.67;1.10;;;10.60;33.60;;;;;;5024985;28;20470;-71
2022/09/19 07:18:38;;;;;;;8.80;1.37;;;10.70;33.70;;;;;;5023278;28;20806;-70
2022/09/19 07:21:05;;;;;;;7.10;1.23;;;10.70;33.80;;;;;;5020571;28;20459;-70
2022/09/19 07:23:31;;;;;;;4.43;0.90;;;10.70;34.00;;;;;;5023222;28;20467;-71
2022/09/19 07:25:59;;;;;;;8.03;1.23;;;10.70;33.90;;;;;;5025567;28;20470;-70
2022/09/19 07:28:26;;;;;;;5.50;1.30;;;10.70;33.80;;;;;;5024334;28;20463;-70
2022/09/19 07:30:57;;;;;;;6.27;1.40;;;10.70;33.40;;;;;;5022875;28;20854;-70
2022/09/19 07:33:24;;;;;;;5.30;1.50;;;10.80;33.20;;;;;;5025618;28;20459;-70
2022/09/19 07:35:53;;;;;;;11.80;1.30;;;10.90;33.10;;;;;;5023029;28;20463;-70
2022/09/19 07:38:22;;;;;;;5.03;1.23;;;10.90;32.80;;;;;;5024670;28;20856;-70
2022/09/19 07:40:49;;;;;;;8.00;1.50;;;11.00;32.60;;;;;;5023662;28;20824;-71
2022/09/19 07:43:17;;;;;;;7.17;1.33;;;11.10;32.60;;;;;;5021780;28;20510;-71
2022/09/19 07:45:46;;;;;;;6.27;1.50;;;11.10;32.30;;;;;;5022200;28;20963;-71
2022/09/19 07:48:14;;;;;;;8.40;1.80;;;11.20;32.30;;;;;;5022035;28;20486;-70
2022/09/19 07:50:41;;;;;;;6.97;1.37;;;11.30;32.40;;;;;;5023097;28;20467;-72
2022/09/19 07:53:11;;;;;;;5.90;1.43;;;11.40;32.20;;;;;;5024327;28;20455;-71
2022/09/19 07:55:38;;;;;;;8.67;1.30;;;11.40;31.90;;;;;;5021320;28;20496;-73
2022/09/19 07:58:06;;;;;;;6.70;1.40;;;11.50;31.70;;;;;;5025831;28;20897;-70
2022/09/19 08:00:36;;;;;;;5.03;1.03;;;11.50;31.50;;;;;;5024665;28;20465;-70
2022/09/19 08:03:05;;;;;;;9.80;1.30;;;11.60;31.00;;;;;;5023743;28;20574;-71
2022/09/19 08:05:37;;;;;;;9.60;1.80;;;11.60;30.80;;;;;;5019825;28;20463;-71
2022/09/19 08:08:04;;;;;;;6.10;1.13;;;11.60;30.60;;;;;;5021115;28;20485;-70
2022/09/19 08:10:32;;;;;;;4.87;1.17;;;11.60;30.30;;;;;;5020242;28;20841;-71
2022/09/19 08:13:00;;;;;;;11.93;1.93;;;11.70;30.30;;;;;;5021988;28;20460;-71
2022/09/19 08:15:27;;;;;;;7.07;1.43;;;11.70;30.10;;;;;;5020790;28;20455;-72
2022/09/19 08:17:58;;;;;;;5.17;1.13;;;11.80;30.00;;;;;;5018074;28;20578;-71
2022/09/19 08:20:25;;;;;;;6.37;1.40;;;11.80;29.50;;;;;;5020866;28;20459;-70
2022/09/19 08:22:57;;;;;;;9.87;1.93;;;11.80;29.60;;;;;;5020902;28;20580;-72
2022/09/19 08:25:24;;;;;;;9.83;1.90;;;11.80;30.00;;;;;;5024541;28;21222;-70
2022/09/19 08:27:51;;;;;;;7.60;1.60;;;11.90;30.30;;;;;;5019300;28;20480;-71
2022/09/19 08:30:18;;;;;;;16.43;2.23;;;11.90;29.80;;;;;;5021922;28;20878;-70
2022/09/19 08:32:45;;;;;;;6.63;1.00;;;11.90;29.90;;;;;;5019247;28;20524;-72
2022/09/19 08:35:14;;;;;;;8.43;1.47;;;11.90;30.20;;;;;;5022210;28;20581;-71
2022/09/19 08:37:40;;;;;;;11.40;1.70;;;12.00;29.80;;;;;;5019104;28;21021;-73
2022/09/19 08:40:18;;;;;;;8.60;2.20;;;12.10;29.80;;;;;;5019087;28;20844;-71
2022/09/19 08:42:54;;;;;;;8.83;1.47;;;12.20;29.80;;;;;;5018258;28;20491;-75
2022/09/19 08:45:27;;;;;;;10.33;1.90;;;12.20;29.70;;;;;;5022439;28;20454;-71
2022/09/19 08:47:56;;;;;;;5.10;1.40;;;12.20;29.30;;;;;;5022906;28;20497;-70
2022/09/19 08:50:26;;;;;;;8.73;2.80;;;12.30;29.30;;;;;;5022099;28;20459;-71
2022/09/19 08:52:55;;;;;;;9.93;2.07;;;12.40;29.60;;;;;;5021220;28;20851;-71
2022/09/19 08:55:26;;;;;;;7.60;2.07;;;12.60;28.30;;;;;;5026721;28;20458;-71
2022/09/19 08:57:55;;;;;;;5.67;2.27;;;12.70;28.40;;;;;;5023983;28;20487;-71
2022/09/19 09:00:24;;;;;;;9.03;2.03;;;12.80;27.30;;;;;;5021013;28;20459;-71
2022/09/19 09:02:56;;;;;;;8.27;2.67;;;12.90;27.40;;;;;;5024123;28;20485;-70
2022/09/19 09:05:34;;;;;;;9.20;2.37;;;13.00;27.20;;;;;;5018921;28;20466;-71
2022/09/19 09:08:08;;;;;;;10.90;2.40;;;13.20;26.90;;;;;;5018136;28;20565;-70
2022/09/19 09:10:50;;;;;;;8.67;1.63;;;13.70;25.80;;;;;;5018325;28;20454;-72
2022/09/19 09:13:32;;;;;;;6.43;1.63;;;14.10;24.80;;;;;;5018245;28;20455;-73
2022/09/19 09:16:09;;;;;;;6.37;1.47;;;14.30;24.00;;;;;;5019211;28;20462;-71
2022/09/19 09:18:58;;;;;;;8.17;1.73;;;14.50;23.20;;;;;;5017852;28;20458;-71
2022/09/19 09:21:36;;;;;;;6.53;1.73;;;14.60;22.60;;;;;;5018005;28;20470;-71
2022/09/19 09:24:06;;;;;;;7.50;1.70;;;14.80;22.50;;;;;;5016493;28;20460;-71
2022/09/19 09:26:40;;;;;;;12.30;2.03;;;14.90;22.50;;;;;;5016199;28;20475;-71
2022/09/19 09:29:15;;;;;;;7.77;1.83;;;15.10;21.80;;;;;;5017412;28;20483;-72
2022/09/19 09:31:46;;;;;;;10.63;2.00;;;15.30;21.60;;;;;;5017407;28;20477;-71
2022/09/19 09:34:18;;;;;;;7.57;2.33;;;15.60;21.30;;;;;;5017615;28;20466;-71
2022/09/19 09:36:51;;;;;;;9.57;2.20;;;16.00;20.00;;;;;;5017315;28;20495;-71
2022/09/19 09:39:25;;;;;;;5.40;1.50;;;16.20;19.80;;;;;;5017650;28;20463;-71
2022/09/19 09:41:57;;;;;;;11.03;2.47;;;16.20;18.50;;;;;;5017057;28;20525;-71
2022/09/19 09:44:43;;;;;;;7.67;1.63;;;16.10;18.80;;;;;;5016409;28;20499;-70
2022/09/19 09:47:21;;;;;;;7.70;2.00;;;16.40;18.60;;;;;;5021822;28;20532;-71
2022/09/19 09:49:49;;;;;;;7.83;2.30;;;16.80;18.70;;;;;;5019964;28;20494;-71
2022/09/19 09:52:37;;;;;;;8.70;2.20;;;17.10;17.60;;;;;;5027141;28;20462;-70
2022/09/19 09:58:22;;;;;;;6.27;1.50;;;17.50;17.70;;;;;;5017626;28;20532;-70
2022/09/19 10:03:53;;;;;;;5.60;1.20;;;20.80;9.60;;;;;;4955501;28;20494;-70
2022/09/19 10:06:26;;;;;;;5.33;1.20;;;20.50;10.60;;;;;;5016527;28;21020;-72
2022/09/19 10:08:59;;;;;;;5.40;1.30;;;20.70;11.40;;;;;;5017129;28;20562;-71
2022/09/19 10:11:34;;;;;;;5.10;1.27;;;22.60;8.20;;;;;;5015952;28;20471;-71
2022/09/19 10:14:02;;;;;;;5.13;1.17;;;24.40;6.10;;;;;;5016280;28;20989;-71
2022/09/19 10:16:31;;;;;;;5.53;1.10;;;24.70;3.80;;;;;;5015953;28;21141;-70
2022/09/19 10:19:04;;;;;;;5.13;1.27;;;23.80;4.70;;;;;;5016055;28;20794;-72
2022/09/19 10:21:31;;;;;;;5.67;1.20;;;23.00;5.60;;;;;;5024885;28;20455;-71
2022/09/19 10:23:59;;;;;;;5.53;1.10;;;22.40;6.50;;;;;;5021317;28;20476;-71
2022/09/19 10:26:30;;;;;;;7.73;1.40;;;21.90;7.00;;;;;;5020231;28;20509;-71
2022/09/19 10:29:00;;;;;;;5.53;0.80;;;21.40;8.00;;;;;;5019856;28;20943;-70
2022/09/19 10:31:34;;;;;;;4.70;0.73;;;22.10;8.30;;;;;;5021925;28;20482;-72
2022/09/19 10:34:04;;;;;;;3.63;0.77;;;22.70;7.10;;;;;;5019214;28;20630;-72
2022/09/19 10:36:33;;;;;;;4.60;0.90;;;22.80;6.00;;;;;;5016955;28;20852;-71
2022/09/19 10:39:04;;;;;;;3.77;0.73;;;22.80;6.20;;;;;;5025599;28;20455;-71
2022/09/19 10:41:31;;;;;;;3.70;0.67;;;22.60;5.90;;;;;;5022548;28;20456;-70
2022/09/19 10:44:00;;;;;;;4.00;0.97;;;21.80;6.60;;;;;;5025156;28;20574;-70
2022/09/19 10:46:31;;;;;;;3.90;1.00;;;21.60;7.50;;;;;;5021785;28;20562;-70
2022/09/19 10:49:00;;;;;;;9.20;1.30;;;22.70;7.10;;;;;;5017783;28;20520;-70
2022/09/19 10:51:32;;;;;;;8.73;1.50;;;23.20;5.40;;;;;;5020238;28;20486;-70
2022/09/19 10:53:59;;;;;;;3.90;0.83;;;23.10;5.60;;;;;;5018152;28;20455;-71
2022/09/19 10:56:29;;;;;;;5.57;1.20;;;23.60;5.20;;;;;;5016236;28;21125;-71
2022/09/19 10:59:03;;;;;;;6.70;1.13;;;23.00;4.90;;;;;;5017461;28;21423;-70
2022/09/19 11:01:30;;;;;;;6.13;0.97;;;22.60;6.20;;;;;;5014905;28;20514;-70
2022/09/19 11:04:04;;;;;;;5.50;1.07;;;23.20;5.30;;;;;;5016061;28;20482;-71
2022/09/19 11:06:32;;;;;;;8.00;1.70;;;22.40;6.20;;;;;;5014250;28;20479;-71
2022/09/19 11:09:00;;;;;;;4.13;1.00;;;21.50;7.70;;;;;;5016269;28;20466;-71
2022/09/19 11:11:45;;;;;;;7.20;1.17;;;20.70;8.60;;;;;;5015217;28;20470;-72
2022/09/19 11:14:18;;;;;;;4.83;1.23;;;20.00;10.10;;;;;;5016692;28;20464;-71
2022/09/19 11:17:19;;;;;;;4.80;1.00;;;19.90;10.60;;;;;;5017720;28;20486;-71
2022/09/19 11:20:19;;;;;;;4.03;1.30;;;19.40;10.80;;;;;;5024027;28;20470;-71
2022/09/19 11:23:13;;;;;;;4.73;1.10;;;18.80;11.90;;;;;;5021581;28;20488;-72
2022/09/19 11:25:48;;;;;;;3.90;0.93;;;18.20;12.90;;;;;;5020408;28;20463;-72
2022/09/19 11:28:23;;;;;;;5.67;1.73;;;17.80;14.00;;;;;;5011293;28;20474;-72
2022/09/19 11:31:02;;;;;;;4.20;0.80;;;17.50;14.50;;;;;;5015459;28;20716;-72
2022/09/19 11:33:39;;;;;;;6.37;1.03;;;17.20;15.10;;;;;;5015092;28;20465;-71
2022/09/19 11:36:17;;;;;;;5.73;1.00;;;17.70;16.50;;;;;;5017346;28;20459;-71
2022/09/19 11:38:55;;;;;;;5.10;0.70;;;19.30;14.80;;;;;;5018160;28;21014;-72
2022/09/19 11:41:29;;;;;;;3.30;0.60;;;20.40;12.60;;;;;;5017570;28;20463;-70
2022/09/19 11:44:25;;;;;;;3.40;0.80;;;20.50;10.70;;;;;;5022177;28;20478;-74
2022/09/19 11:47:06;;;;;;;3.10;0.60;;;20.00;11.40;;;;;;5019990;28;20506;-74
2022/09/19 11:50:08;;;;;;;4.20;0.90;;;19.50;12.80;;;;;;5022483;28;20887;-71
2022/09/19 11:52:47;;;;;;;6.30;1.50;;;19.30;12.10;;;;;;5020886;28;20462;-70
2022/09/19 11:55:27;;;;;;;6.57;1.23;;;19.00;11.70;;;;;;5022515;28;20496;-70
2022/09/19 11:58:07;;;;;;;4.73;0.97;;;18.80;12.00;;;;;;5018773;28;21032;-71
2022/09/19 12:00:46;;;;;;;9.50;1.47;;;18.60;12.40;;;;;;5020251;28;20577;-70
2022/09/19 12:03:22;;;;;;;4.50;0.87;;;18.50;12.60;;;;;;5023055;28;20483;-71
2022/09/19 12:06:03;;;;;;;4.60;1.00;;;18.50;12.70;;;;;;5017614;28;22198;-70
2022/09/19 12:08:43;;;;;;;3.83;0.93;;;18.40;12.70;;;;;;5020123;28;20502;-71
2022/09/19 12:11:15;;;;;;;4.43;0.77;;;18.30;12.90;;;;;;5015903;28;20471;-72
2022/09/19 12:13:46;;;;;;;5.63;1.00;;;18.10;12.80;;;;;;5020828;28;20460;-71
2022/09/19 12:16:23;;;;;;;4.60;1.00;;;17.90;13.50;;;;;;5022166;28;20459;-71
2022/09/19 12:18:55;;;;;;;6.70;1.60;;;17.70;13.70;;;;;;5018446;28;20473;-70
2022/09/19 12:21:23;;;;;;;4.03;1.10;;;17.60;14.20;;;;;;5022503;28;20467;-71
2022/09/19 12:26:53;;;;;;;4.07;1.17;;;17.70;15.00;;;;;;5018201;28;20481;-71
2022/09/19 12:29:25;;;;;;;4.93;1.30;;;18.00;15.50;;;;;;5018180;28;21007;-71
2022/09/19 12:32:00;;;;;;;6.83;1.13;;;18.20;14.00;;;;;;5023393;28;20510;-70
2022/09/19 12:34:35;;;;;;;4.90;1.43;;;18.20;13.60;;;;;;5019341;28;20457;-71
2022/09/19 12:37:12;;;;;;;5.77;1.20;;;18.30;13.70;;;;;;5022664;28;20577;-71
2022/09/19 12:39:46;;;;;;;5.97;1.20;;;18.40;14.50;;;;;;5023467;28;20469;-71
2022/09/19 12:42:21;;;;;;;5.53;0.73;;;18.50;14.10;;;;;;5018406;28;20509;-73
2022/09/19 12:44:57;;;;;;;6.00;1.17;;;18.60;13.50;;;;;;5016844;28;21180;-72
2022/09/19 12:47:40;;;;;;;6.23;0.90;;;18.60;13.40;;;;;;5021027;28;20516;-71
2022/09/19 12:50:20;;;;;;;4.60;1.10;;;18.50;12.50;;;;;;5019503;28;20459;-72
2022/09/19 12:52:59;;;;;;;4.47;0.80;;;18.30;12.80;;;;;;5022492;28;20458;-73
2022/09/19 12:55:32;;;;;;;4.63;0.80;;;18.10;13.50;;;;;;5020209;28;20465;-72
2022/09/19 12:58:06;;;;;;;4.20;0.97;;;17.90;13.60;;;;;;5020269;28;20486;-73
2022/09/19 13:00:42;;;;;;;6.37;1.53;;;17.80;13.90;;;;;;5016568;28;20466;-71
2022/09/19 13:03:17;;;;;;;4.80;1.77;;;17.70;14.10;;;;;;5017783;28;20855;-72
2022/09/19 13:05:47;;;;;;;5.37;1.57;;;17.40;14.30;;;;;;5016578;28;20484;-71
2022/09/19 13:08:17;;;;;;;5.57;1.60;;;17.30;15.80;;;;;;5021728;28;20478;-71
2022/09/19 13:10:49;;;;;;;5.57;1.23;;;17.10;16.20;;;;;;5016834;28;20530;-71
2022/09/19 13:13:22;;;;;;;5.67;0.93;;;16.90;16.30;;;;;;5020347;28;20459;-71
2022/09/19 13:15:53;;;;;;;5.90;1.90;;;16.80;14.80;;;;;;5017953;28;20494;-72
2022/09/19 13:23:57;;;;;;;6.03;2.20;;;16.70;18.40;;;;;;5017480;28;20998;-71
2022/09/19 13:26:32;;;;;;;5.83;1.63;;;16.60;16.10;;;;;;5021355;28;20514;-70
2022/09/19 13:29:00;;;;;;;5.10;1.00;;;16.60;16.70;;;;;;5022192;28;20494;-71
2022/09/19 13:31:38;;;;;;;4.27;0.90;;;16.50;16.40;;;;;;5026781;28;20578;-72